sensor_id;sensor_type;location;lat;lon;timestamp;temperature;humidity
59007;DHT22;44792;52.760;6.726;2023-04-24T00:02:23;10.90;99.90
59007;DHT22;44792;52.760;6.726;2023-04-24T00:04:49;10.80;99.90
59007;DHT22;44792;52.760;6.726;2023-04-24T00:07:15;10.80;99.90
59007;DHT22;44792;52.760;6.726;2023-04-24T00:09:43;10.80;99.90
59007;DHT22;44792;52.760;6.726;2023-04-24T00:12:09;10.80;99.90
59007;DHT22;44792;52.760;6.726;2023-04-24T00:14:35;10.90;99.90
59007;DHT22;44792;52.760;6.726;2023-04-24T00:17:01;10.90;99.90
59007;DHT22;44792;52.760;6.726;2023-04-24T00:19:28;10.80;99.90
59007;DHT22;44792;52.760;6.726;2023-04-24T00:21:54;10.90;99.90
59007;DHT22;44792;52.760;6.726;2023-04-24T00:24:20;11.00;99.90
59007;DHT22;44792;52.760;6.726;2023-04-24T00:26:47;10.80;99.90
59007;DHT22;44792;52.760;6.726;2023-04-24T00:29:12;10.90;99.90
59007;DHT22;44792;52.760;6.726;2023-04-24T00:31:39;10.90;99.90
59007;DHT22;44792;52.760;6.726;2023-04-24T00:34:05;10.90;99.90
59007;DHT22;44792;52.760;6.726;2023-04-24T00:36:31;10.90;99.90
59007;DHT22;44792;52.760;6.726;2023-04-24T00:38:58;11.00;99.90
59007;DHT22;44792;52.760;6.726;2023-04-24T00:41:25;10.90;99.90
59007;DHT22;44792;52.760;6.726;2023-04-24T00:43:52;11.00;99.90
59007;DHT22;44792;52.760;6.726;2023-04-24T00:46:17;10.90;99.90
59007;DHT22;44792;52.760;6.726;2023-04-24T00:48:44;10.80;99.90
59007;DHT22;44792;52.760;6.726;2023-04-24T00:51:10;10.80;99.90
59007;DHT22;44792;52.760;6.726;2023-04-24T00:53:35;10.70;99.90
59007;DHT22;44792;52.760;6.726;2023-04-24T00:56:02;10.80;99.90
59007;DHT22;44792;52.760;6.726;2023-04-24T00:58:28;10.80;99.90
59007;DHT22;44792;52.760;6.726;2023-04-24T01:00:54;10.80;99.90
59007;DHT22;44792;52.760;6.726;2023-04-24T01:03:22;10.70;99.90
59007;DHT22;44792;52.760;6.726;2023-04-24T01:05:49;10.80;99.90
59007;DHT22;44792;52.760;6.726;2023-04-24T01:08:15;10.70;99.90
59007;DHT22;44792;52.760;6.726;2023-04-24T01:10:41;10.70;99.90
59007;DHT22;44792;52.760;6.726;2023-04-24T01:13:08;10.70;99.90
59007;DHT22;44792;52.760;6.726;2023-04-24T01:15:34;10.70;99.90
59007;DHT22;44792;52.760;6.726;2023-04-24T01:18:00;10.70;99.90
59007;DHT22;44792;52.760;6.726;2023-04-24T01:20:26;10.70;99.90
59007;DHT22;44792;52.760;6.726;2023-04-24T01:22:54;10.70;99.90
59007;DHT22;44792;52.760;6.726;2023-04-24T01:25:20;10.70;99.90
59007;DHT22;44792;52.760;6.726;2023-04-24T01:27:46;10.70;99.90
59007;DHT22;44792;52.760;6.726;2023-04-24T01:30:12;10.60;99.90
59007;DHT22;44792;52.760;6.726;2023-04-24T01:32:38;10.60;99.90
59007;DHT22;44792;52.760;6.726;2023-04-24T01:35:05;10.60;99.90
59007;DHT22;44792;52.760;6.726;2023-04-24T01:37:30;10.60;99.90
59007;DHT22;44792;52.760;6.726;2023-04-24T01:39:57;10.60;99.90
59007;DHT22;44792;52.760;6.726;2023-04-24T01:42:23;10.60;99.90
59007;DHT22;44792;52.760;6.726;2023-04-24T01:44:50;10.50;99.90
59007;DHT22;44792;52.760;6.726;2023-04-24T01:47:16;10.50;99.90
59007;DHT22;44792;52.760;6.726;2023-04-24T01:49:42;10.40;99.90
59007;DHT22;44792;52.760;6.726;2023-04-24T01:52:08;10.50;99.90
59007;DHT22;44792;52.760;6.726;2023-04-24T01:54:34;10.50;99.90
59007;DHT22;44792;52.760;6.726;2023-04-24T01:56:59;10.50;99.90
59007;DHT22;44792;52.760;6.726;2023-04-24T01:59:28;10.40;99.90
59007;DHT22;44792;52.760;6.726;2023-04-24T02:01:54;10.50;99.90
59007;DHT22;44792;52.760;6.726;2023-04-24T02:04:19;10.50;99.90
59007;DHT22;44792;52.760;6.726;2023-04-24T02:06:45;10.40;99.90
59007;DHT22;44792;52.760;6.726;2023-04-24T02:09:11;10.40;99.90
59007;DHT22;44792;52.760;6.726;2023-04-24T02:11:37;10.40;99.90
59007;DHT22;44792;52.760;6.726;2023-04-24T02:14:02;10.50;99.90
59007;DHT22;44792;52.760;6.726;2023-04-24T02:16:28;10.50;99.90
59007;DHT22;44792;52.760;6.726;2023-04-24T02:18:58;10.40;99.90
59007;DHT22;44792;52.760;6.726;2023-04-24T02:21:24;10.40;99.90
59007;DHT22;44792;52.760;6.726;2023-04-24T02:23:49;10.40;99.90
59007;DHT22;44792;52.760;6.726;2023-04-24T02:26:15;10.30;99.90
59007;DHT22;44792;52.760;6.726;2023-04-24T02:28:41;10.30;99.90
59007;DHT22;44792;52.760;6.726;2023-04-24T02:31:07;10.30;99.90
59007;DHT22;44792;52.760;6.726;2023-04-24T02:33:33;10.30;99.90
59007;DHT22;44792;52.760;6.726;2023-04-24T02:35:58;10.30;99.90
59007;DHT22;44792;52.760;6.726;2023-04-24T02:38:24;10.30;99.90
59007;DHT22;44792;52.760;6.726;2023-04-24T02:40:50;10.40;99.90
59007;DHT22;44792;52.760;6.726;2023-04-24T02:43:16;10.30;99.90
59007;DHT22;44792;52.760;6.726;2023-04-24T02:45:41;10.40;99.90
59007;DHT22;44792;52.760;6.726;2023-04-24T02:48:07;10.40;99.90
59007;DHT22;44792;52.760;6.726;2023-04-24T02:50:33;10.30;99.90
59007;DHT22;44792;52.760;6.726;2023-04-24T02:52:59;10.40;99.90
59007;DHT22;44792;52.760;6.726;2023-04-24T02:55:24;10.30;99.90
59007;DHT22;44792;52.760;6.726;2023-04-24T02:57:50;10.20;99.90
59007;DHT22;44792;52.760;6.726;2023-04-24T03:00:16;10.30;99.90
59007;DHT22;44792;52.760;6.726;2023-04-24T03:02:42;10.30;99.90
59007;DHT22;44792;52.760;6.726;2023-04-24T03:05:08;10.30;99.90
59007;DHT22;44792;52.760;6.726;2023-04-24T03:07:34;10.30;99.90
59007;DHT22;44792;52.760;6.726;2023-04-24T03:10:00;10.30;99.90
59007;DHT22;44792;52.760;6.726;2023-04-24T03:12:25;10.20;99.90
59007;DHT22;44792;52.760;6.726;2023-04-24T03:14:51;10.30;99.90
59007;DHT22;44792;52.760;6.726;2023-04-24T03:17:17;10.30;99.90
59007;DHT22;44792;52.760;6.726;2023-04-24T03:19:43;10.30;99.90
59007;DHT22;44792;52.760;6.726;2023-04-24T03:22:08;10.30;99.90
59007;DHT22;44792;52.760;6.726;2023-04-24T03:24:34;10.40;99.90
59007;DHT22;44792;52.760;6.726;2023-04-24T03:27:00;10.40;99.90
59007;DHT22;44792;52.760;6.726;2023-04-24T03:29:26;10.30;99.90
59007;DHT22;44792;52.760;6.726;2023-04-24T03:31:51;10.20;99.90
59007;DHT22;44792;52.760;6.726;2023-04-24T03:34:17;10.30;99.90
59007;DHT22;44792;52.760;6.726;2023-04-24T03:36:43;10.10;99.90
59007;DHT22;44792;52.760;6.726;2023-04-24T03:39:09;10.10;99.90
59007;DHT22;44792;52.760;6.726;2023-04-24T03:41:35;10.20;99.90
59007;DHT22;44792;52.760;6.726;2023-04-24T03:44:01;10.20;99.90
59007;DHT22;44792;52.760;6.726;2023-04-24T03:46:26;10.20;99.90
59007;DHT22;44792;52.760;6.726;2023-04-24T03:48:52;10.10;99.90
59007;DHT22;44792;52.760;6.726;2023-04-24T03:51:18;10.20;99.90
59007;DHT22;44792;52.760;6.726;2023-04-24T03:53:43;10.10;99.90
59007;DHT22;44792;52.760;6.726;2023-04-24T03:56:09;10.20;99.90
59007;DHT22;44792;52.760;6.726;2023-04-24T03:58:35;10.00;99.90
59007;DHT22;44792;52.760;6.726;2023-04-24T04:01:00;10.10;99.90
59007;DHT22;44792;52.760;6.726;2023-04-24T04:03:26;10.10;99.90
59007;DHT22;44792;52.760;6.726;2023-04-24T04:05:52;10.10;99.90
59007;DHT22;44792;52.760;6.726;2023-04-24T04:08:18;10.20;99.90
59007;DHT22;44792;52.760;6.726;2023-04-24T04:10:44;10.10;99.90
59007;DHT22;44792;52.760;6.726;2023-04-24T04:13:09;10.10;99.90
59007;DHT22;44792;52.760;6.726;2023-04-24T04:15:35;10.20;99.90
59007;DHT22;44792;52.760;6.726;2023-04-24T04:18:01;10.20;99.90
59007;DHT22;44792;52.760;6.726;2023-04-24T04:20:27;10.20;99.90
59007;DHT22;44792;52.760;6.726;2023-04-24T04:22:52;10.20;99.90
59007;DHT22;44792;52.760;6.726;2023-04-24T04:25:18;10.20;99.90
59007;DHT22;44792;52.760;6.726;2023-04-24T04:27:46;10.10;99.90
59007;DHT22;44792;52.760;6.726;2023-04-24T04:30:13;10.00;99.90
59007;DHT22;44792;52.760;6.726;2023-04-24T04:32:39;10.10;99.90
59007;DHT22;44792;52.760;6.726;2023-04-24T04:35:05;10.00;99.90
59007;DHT22;44792;52.760;6.726;2023-04-24T04:37:31;10.00;99.90
59007;DHT22;44792;52.760;6.726;2023-04-24T04:39:59;10.00;99.90
59007;DHT22;44792;52.760;6.726;2023-04-24T04:42:25;10.00;99.90
59007;DHT22;44792;52.760;6.726;2023-04-24T04:44:52;10.00;99.90
59007;DHT22;44792;52.760;6.726;2023-04-24T04:47:21;10.10;99.90
59007;DHT22;44792;52.760;6.726;2023-04-24T04:49:50;10.10;99.90
59007;DHT22;44792;52.760;6.726;2023-04-24T04:52:17;9.90;99.90
59007;DHT22;44792;52.760;6.726;2023-04-24T04:54:43;10.00;99.90
59007;DHT22;44792;52.760;6.726;2023-04-24T04:57:09;10.10;99.90
59007;DHT22;44792;52.760;6.726;2023-04-24T04:59:34;10.00;99.90
59007;DHT22;44792;52.760;6.726;2023-04-24T05:02:00;10.10;99.90
59007;DHT22;44792;52.760;6.726;2023-04-24T05:04:26;10.20;99.90
59007;DHT22;44792;52.760;6.726;2023-04-24T05:06:52;10.00;99.90
59007;DHT22;44792;52.760;6.726;2023-04-24T05:09:18;10.10;99.90
59007;DHT22;44792;52.760;6.726;2023-04-24T05:11:44;10.00;99.90
59007;DHT22;44792;52.760;6.726;2023-04-24T05:14:10;10.00;99.90
59007;DHT22;44792;52.760;6.726;2023-04-24T05:16:35;10.00;99.90
59007;DHT22;44792;52.760;6.726;2023-04-24T05:19:02;10.00;99.90
59007;DHT22;44792;52.760;6.726;2023-04-24T05:21:28;10.00;99.90
59007;DHT22;44792;52.760;6.726;2023-04-24T05:23:54;9.90;99.90
59007;DHT22;44792;52.760;6.726;2023-04-24T05:26:20;9.90;99.90
59007;DHT22;44792;52.760;6.726;2023-04-24T05:28:46;9.90;99.90
59007;DHT22;44792;52.760;6.726;2023-04-24T05:31:11;9.80;99.90
59007;DHT22;44792;52.760;6.726;2023-04-24T05:33:37;9.80;99.90
59007;DHT22;44792;52.760;6.726;2023-04-24T05:36:03;9.80;99.90
59007;DHT22;44792;52.760;6.726;2023-04-24T05:38:30;9.80;99.90
59007;DHT22;44792;52.760;6.726;2023-04-24T05:40:56;9.80;99.90
59007;DHT22;44792;52.760;6.726;2023-04-24T05:43:22;9.80;99.90
59007;DHT22;44792;52.760;6.726;2023-04-24T05:45:48;9.70;99.90
59007;DHT22;44792;52.760;6.726;2023-04-24T05:48:13;9.80;99.90
59007;DHT22;44792;52.760;6.726;2023-04-24T05:50:39;9.80;99.90
59007;DHT22;44792;52.760;6.726;2023-04-24T05:53:05;9.90;99.90
59007;DHT22;44792;52.760;6.726;2023-04-24T05:55:32;9.80;99.90
59007;DHT22;44792;52.760;6.726;2023-04-24T05:57:58;9.80;99.90
59007;DHT22;44792;52.760;6.726;2023-04-24T06:00:24;9.90;99.90
59007;DHT22;44792;52.760;6.726;2023-04-24T06:02:50;9.90;99.90
59007;DHT22;44792;52.760;6.726;2023-04-24T06:05:17;9.90;99.90
59007;DHT22;44792;52.760;6.726;2023-04-24T06:07:43;10.00;99.90
59007;DHT22;44792;52.760;6.726;2023-04-24T06:10:09;9.90;99.90
59007;DHT22;44792;52.760;6.726;2023-04-24T06:12:35;9.90;99.90
59007;DHT22;44792;52.760;6.726;2023-04-24T06:15:02;10.00;99.90
59007;DHT22;44792;52.760;6.726;2023-04-24T06:17:27;9.90;99.90
59007;DHT22;44792;52.760;6.726;2023-04-24T06:19:53;10.00;99.90
59007;DHT22;44792;52.760;6.726;2023-04-24T06:22:19;9.90;99.90
59007;DHT22;44792;52.760;6.726;2023-04-24T06:24:44;10.00;99.90
59007;DHT22;44792;52.760;6.726;2023-04-24T06:27:10;10.10;99.90
59007;DHT22;44792;52.760;6.726;2023-04-24T06:29:36;10.10;99.90
59007;DHT22;44792;52.760;6.726;2023-04-24T06:32:02;10.10;99.90
59007;DHT22;44792;52.760;6.726;2023-04-24T06:34:27;10.20;99.90
59007;DHT22;44792;52.760;6.726;2023-04-24T06:36:54;10.20;99.90
59007;DHT22;44792;52.760;6.726;2023-04-24T06:39:20;10.30;99.90
59007;DHT22;44792;52.760;6.726;2023-04-24T06:41:46;10.30;99.90
59007;DHT22;44792;52.760;6.726;2023-04-24T06:44:11;10.30;99.90
59007;DHT22;44792;52.760;6.726;2023-04-24T06:46:37;10.40;99.90
59007;DHT22;44792;52.760;6.726;2023-04-24T06:49:03;10.40;99.90
59007;DHT22;44792;52.760;6.726;2023-04-24T06:51:28;10.40;99.90
59007;DHT22;44792;52.760;6.726;2023-04-24T06:53:54;10.30;99.90
59007;DHT22;44792;52.760;6.726;2023-04-24T06:56:21;10.30;99.90
59007;DHT22;44792;52.760;6.726;2023-04-24T06:58:48;10.30;99.90
59007;DHT22;44792;52.760;6.726;2023-04-24T07:01:13;10.30;99.90
59007;DHT22;44792;52.760;6.726;2023-04-24T07:03:39;10.30;99.90
59007;DHT22;44792;52.760;6.726;2023-04-24T07:06:05;10.40;99.90
59007;DHT22;44792;52.760;6.726;2023-04-24T07:08:31;10.30;99.90
59007;DHT22;44792;52.760;6.726;2023-04-24T07:10:59;10.40;99.90
59007;DHT22;44792;52.760;6.726;2023-04-24T07:13:25;10.40;99.90
59007;DHT22;44792;52.760;6.726;2023-04-24T07:15:51;10.40;99.90
59007;DHT22;44792;52.760;6.726;2023-04-24T07:18:20;10.40;99.90
59007;DHT22;44792;52.760;6.726;2023-04-24T07:20:45;10.40;99.90
59007;DHT22;44792;52.760;6.726;2023-04-24T07:23:11;10.50;99.90
59007;DHT22;44792;52.760;6.726;2023-04-24T07:25:37;10.50;99.90
59007;DHT22;44792;52.760;6.726;2023-04-24T07:28:04;10.50;99.90
59007;DHT22;44792;52.760;6.726;2023-04-24T07:30:30;10.50;99.90
59007;DHT22;44792;52.760;6.726;2023-04-24T07:32:58;10.60;99.90
59007;DHT22;44792;52.760;6.726;2023-04-24T07:35:24;10.60;99.90
59007;DHT22;44792;52.760;6.726;2023-04-24T07:37:53;10.60;99.90
59007;DHT22;44792;52.760;6.726;2023-04-24T07:40:20;10.60;99.90
59007;DHT22;44792;52.760;6.726;2023-04-24T07:42:45;10.60;99.90
59007;DHT22;44792;52.760;6.726;2023-04-24T07:45:14;10.70;99.90
59007;DHT22;44792;52.760;6.726;2023-04-24T07:47:42;10.60;99.90
59007;DHT22;44792;52.760;6.726;2023-04-24T07:50:09;10.60;99.90
59007;DHT22;44792;52.760;6.726;2023-04-24T07:52:35;10.70;99.90
59007;DHT22;44792;52.760;6.726;2023-04-24T07:55:02;10.70;99.90
59007;DHT22;44792;52.760;6.726;2023-04-24T07:57:28;10.70;99.90
59007;DHT22;44792;52.760;6.726;2023-04-24T07:59:54;10.70;99.90
59007;DHT22;44792;52.760;6.726;2023-04-24T08:02:20;10.70;99.90
59007;DHT22;44792;52.760;6.726;2023-04-24T08:04:52;10.70;99.90
59007;DHT22;44792;52.760;6.726;2023-04-24T08:07:19;10.60;99.90
59007;DHT22;44792;52.760;6.726;2023-04-24T08:09:45;10.60;99.90
59007;DHT22;44792;52.760;6.726;2023-04-24T08:12:11;10.70;99.90
59007;DHT22;44792;52.760;6.726;2023-04-24T08:14:36;10.70;99.90
59007;DHT22;44792;52.760;6.726;2023-04-24T08:17:02;10.70;99.90
59007;DHT22;44792;52.760;6.726;2023-04-24T08:19:29;10.70;99.90
59007;DHT22;44792;52.760;6.726;2023-04-24T08:21:54;10.60;99.90
59007;DHT22;44792;52.760;6.726;2023-04-24T08:24:20;10.70;99.90
59007;DHT22;44792;52.760;6.726;2023-04-24T08:26:46;10.70;99.90
59007;DHT22;44792;52.760;6.726;2023-04-24T08:29:15;10.70;99.90
59007;DHT22;44792;52.760;6.726;2023-04-24T08:31:41;10.70;99.90
59007;DHT22;44792;52.760;6.726;2023-04-24T08:34:07;10.70;99.90
59007;DHT22;44792;52.760;6.726;2023-04-24T08:36:32;10.70;99.90
59007;DHT22;44792;52.760;6.726;2023-04-24T08:38:59;10.70;99.90
59007;DHT22;44792;52.760;6.726;2023-04-24T08:41:24;10.70;99.90
59007;DHT22;44792;52.760;6.726;2023-04-24T08:43:52;10.70;99.90
59007;DHT22;44792;52.760;6.726;2023-04-24T08:46:19;10.70;99.90
59007;DHT22;44792;52.760;6.726;2023-04-24T08:48:45;10.70;99.90
59007;DHT22;44792;52.760;6.726;2023-04-24T08:51:11;10.70;99.90
59007;DHT22;44792;52.760;6.726;2023-04-24T08:53:37;10.60;99.90
59007;DHT22;44792;52.760;6.726;2023-04-24T08:56:03;10.60;99.90
59007;DHT22;44792;52.760;6.726;2023-04-24T08:58:31;10.60;99.90
59007;DHT22;44792;52.760;6.726;2023-04-24T09:00:57;10.60;99.90
59007;DHT22;44792;52.760;6.726;2023-04-24T09:03:24;10.60;99.90
59007;DHT22;44792;52.760;6.726;2023-04-24T09:05:51;10.60;99.90
59007;DHT22;44792;52.760;6.726;2023-04-24T09:08:18;10.60;99.90
59007;DHT22;44792;52.760;6.726;2023-04-24T09:10:45;10.60;99.90
59007;DHT22;44792;52.760;6.726;2023-04-24T09:13:11;10.50;99.90
59007;DHT22;44792;52.760;6.726;2023-04-24T09:15:40;10.60;99.90
59007;DHT22;44792;52.760;6.726;2023-04-24T09:18:07;10.50;99.90
59007;DHT22;44792;52.760;6.726;2023-04-24T09:20:33;10.50;99.90
59007;DHT22;44792;52.760;6.726;2023-04-24T09:22:58;10.50;99.90
59007;DHT22;44792;52.760;6.726;2023-04-24T09:25:34;10.50;99.90
59007;DHT22;44792;52.760;6.726;2023-04-24T09:28:04;10.40;99.90
59007;DHT22;44792;52.760;6.726;2023-04-24T09:30:32;10.50;99.90
59007;DHT22;44792;52.760;6.726;2023-04-24T09:33:14;10.50;99.90
59007;DHT22;44792;52.760;6.726;2023-04-24T09:35:42;10.40;99.90
59007;DHT22;44792;52.760;6.726;2023-04-24T09:38:08;10.40;99.90
59007;DHT22;44792;52.760;6.726;2023-04-24T09:40:35;10.40;99.90
59007;DHT22;44792;52.760;6.726;2023-04-24T09:43:01;10.40;99.90
59007;DHT22;44792;52.760;6.726;2023-04-24T09:45:38;10.40;99.90
59007;DHT22;44792;52.760;6.726;2023-04-24T09:48:05;10.50;99.90
59007;DHT22;44792;52.760;6.726;2023-04-24T09:50:32;10.40;99.90
59007;DHT22;44792;52.760;6.726;2023-04-24T09:53:02;10.40;99.90
59007;DHT22;44792;52.760;6.726;2023-04-24T09:55:28;10.50;99.90
59007;DHT22;44792;52.760;6.726;2023-04-24T09:57:58;10.40;99.90
59007;DHT22;44792;52.760;6.726;2023-04-24T10:00:30;10.40;99.90
59007;DHT22;44792;52.760;6.726;2023-04-24T10:02:58;10.40;99.90
59007;DHT22;44792;52.760;6.726;2023-04-24T10:05:33;10.40;99.90
59007;DHT22;44792;52.760;6.726;2023-04-24T10:08:09;10.40;99.90
59007;DHT22;44792;52.760;6.726;2023-04-24T10:10:39;10.40;99.90
59007;DHT22;44792;52.760;6.726;2023-04-24T10:13:07;10.40;99.90
59007;DHT22;44792;52.760;6.726;2023-04-24T10:15:34;10.30;99.90
59007;DHT22;44792;52.760;6.726;2023-04-24T10:18:00;10.40;99.90
59007;DHT22;44792;52.760;6.726;2023-04-24T10:20:29;10.40;99.90
59007;DHT22;44792;52.760;6.726;2023-04-24T10:22:57;10.40;99.90
59007;DHT22;44792;52.760;6.726;2023-04-24T10:25:28;10.40;99.90
59007;DHT22;44792;52.760;6.726;2023-04-24T10:27:54;10.40;99.90
59007;DHT22;44792;52.760;6.726;2023-04-24T10:30:26;10.40;99.90
59007;DHT22;44792;52.760;6.726;2023-04-24T10:32:52;10.40;99.90
59007;DHT22;44792;52.760;6.726;2023-04-24T10:35:18;10.40;99.90
59007;DHT22;44792;52.760;6.726;2023-04-24T10:37:56;10.50;99.90
59007;DHT22;44792;52.760;6.726;2023-04-24T10:40:35;10.50;99.90
59007;DHT22;44792;52.760;6.726;2023-04-24T10:43:08;10.40;99.90
59007;DHT22;44792;52.760;6.726;2023-04-24T10:45:37;10.40;99.90
59007;DHT22;44792;52.760;6.726;2023-04-24T10:48:05;10.40;99.90
59007;DHT22;44792;52.760;6.726;2023-04-24T10:50:43;10.40;99.90
59007;DHT22;44792;52.760;6.726;2023-04-24T10:53:20;10.30;99.90
59007;DHT22;44792;52.760;6.726;2023-04-24T10:55:50;10.30;99.90
59007;DHT22;44792;52.760;6.726;2023-04-24T10:58:22;10.20;99.90
59007;DHT22;44792;52.760;6.726;2023-04-24T11:00:59;10.20;99.90
59007;DHT22;44792;52.760;6.726;2023-04-24T11:06:01;10.20;99.90
59007;DHT22;44792;52.760;6.726;2023-04-24T11:08:30;10.20;99.90
59007;DHT22;44792;52.760;6.726;2023-04-24T11:21:49;10.30;99.90
59007;DHT22;44792;52.760;6.726;2023-04-24T11:29:39;10.30;99.90
59007;DHT22;44792;52.760;6.726;2023-04-24T11:32:16;10.30;99.90
59007;DHT22;44792;52.760;6.726;2023-04-24T11:34:48;10.30;99.90
59007;DHT22;44792;52.760;6.726;2023-04-24T11:37:14;10.20;99.90
59007;DHT22;44792;52.760;6.726;2023-04-24T11:39:40;10.30;99.90
59007;DHT22;44792;52.760;6.726;2023-04-24T11:42:07;10.20;99.90
59007;DHT22;44792;52.760;6.726;2023-04-24T11:44:36;10.30;99.90
59007;DHT22;44792;52.760;6.726;2023-04-24T11:47:06;10.30;99.90
59007;DHT22;44792;52.760;6.726;2023-04-24T11:49:38;10.30;99.90
59007;DHT22;44792;52.760;6.726;2023-04-24T11:52:04;10.30;99.90
59007;DHT22;44792;52.760;6.726;2023-04-24T11:54:30;10.40;99.90
59007;DHT22;44792;52.760;6.726;2023-04-24T11:56:56;10.40;99.90
59007;DHT22;44792;52.760;6.726;2023-04-24T11:59:22;10.50;99.90
59007;DHT22;44792;52.760;6.726;2023-04-24T12:01:49;10.50;99.90
59007;DHT22;44792;52.760;6.726;2023-04-24T12:04:17;10.60;99.90
59007;DHT22;44792;52.760;6.726;2023-04-24T12:07:03;10.60;99.90
59007;DHT22;44792;52.760;6.726;2023-04-24T12:09:46;10.70;99.90
59007;DHT22;44792;52.760;6.726;2023-04-24T12:12:14;10.70;99.90
59007;DHT22;44792;52.760;6.726;2023-04-24T12:14:50;10.60;99.90
59007;DHT22;44792;52.760;6.726;2023-04-24T12:17:17;10.70;99.90
59007;DHT22;44792;52.760;6.726;2023-04-24T12:19:47;10.60;99.90
59007;DHT22;44792;52.760;6.726;2023-04-24T12:22:13;10.60;99.90
59007;DHT22;44792;52.760;6.726;2023-04-24T12:25:02;10.60;99.90
59007;DHT22;44792;52.760;6.726;2023-04-24T12:27:34;10.60;99.90
59007;DHT22;44792;52.760;6.726;2023-04-24T12:30:02;10.50;99.90
59007;DHT22;44792;52.760;6.726;2023-04-24T12:32:28;10.50;99.90
59007;DHT22;44792;52.760;6.726;2023-04-24T12:34:55;10.50;99.90
59007;DHT22;44792;52.760;6.726;2023-04-24T12:37:26;10.50;99.90
59007;DHT22;44792;52.760;6.726;2023-04-24T12:40:07;10.50;99.90
59007;DHT22;44792;52.760;6.726;2023-04-24T12:42:34;10.50;99.90
59007;DHT22;44792;52.760;6.726;2023-04-24T12:45:02;10.50;99.90
59007;DHT22;44792;52.760;6.726;2023-04-24T12:47:30;10.50;99.90
59007;DHT22;44792;52.760;6.726;2023-04-24T12:49:56;10.60;99.90
59007;DHT22;44792;52.760;6.726;2023-04-24T12:52:26;10.50;99.90
59007;DHT22;44792;52.760;6.726;2023-04-24T12:55:00;10.50;99.90
59007;DHT22;44792;52.760;6.726;2023-04-24T12:57:28;10.40;99.90
59007;DHT22;44792;52.760;6.726;2023-04-24T12:59:55;10.40;99.90
59007;DHT22;44792;52.760;6.726;2023-04-24T13:02:30;10.40;99.90
59007;DHT22;44792;52.760;6.726;2023-04-24T13:05:00;10.50;99.90
59007;DHT22;44792;52.760;6.726;2023-04-24T13:07:27;10.50;99.90
59007;DHT22;44792;52.760;6.726;2023-04-24T13:09:54;10.50;99.90
59007;DHT22;44792;52.760;6.726;2023-04-24T13:12:20;10.60;99.90
59007;DHT22;44792;52.760;6.726;2023-04-24T13:14:46;10.70;99.90
59007;DHT22;44792;52.760;6.726;2023-04-24T13:17:12;10.70;99.90
59007;DHT22;44792;52.760;6.726;2023-04-24T13:19:40;10.70;99.90
59007;DHT22;44792;52.760;6.726;2023-04-24T13:22:06;10.70;99.90
59007;DHT22;44792;52.760;6.726;2023-04-24T13:24:32;10.70;99.90
59007;DHT22;44792;52.760;6.726;2023-04-24T13:26:58;10.70;99.90
59007;DHT22;44792;52.760;6.726;2023-04-24T13:29:25;10.60;99.90
59007;DHT22;44792;52.760;6.726;2023-04-24T13:31:51;10.60;99.90
59007;DHT22;44792;52.760;6.726;2023-04-24T13:34:17;10.60;99.90
59007;DHT22;44792;52.760;6.726;2023-04-24T13:36:43;10.60;99.90
59007;DHT22;44792;52.760;6.726;2023-04-24T13:39:09;10.60;99.90
59007;DHT22;44792;52.760;6.726;2023-04-24T13:41:36;10.60;99.90
59007;DHT22;44792;52.760;6.726;2023-04-24T13:44:02;10.60;99.90
59007;DHT22;44792;52.760;6.726;2023-04-24T13:46:28;10.60;99.90
59007;DHT22;44792;52.760;6.726;2023-04-24T13:48:54;10.60;99.90
59007;DHT22;44792;52.760;6.726;2023-04-24T13:51:20;10.70;99.90
59007;DHT22;44792;52.760;6.726;2023-04-24T13:53:45;10.60;99.90
59007;DHT22;44792;52.760;6.726;2023-04-24T13:56:11;10.60;99.90
59007;DHT22;44792;52.760;6.726;2023-04-24T13:58:38;10.60;99.90
59007;DHT22;44792;52.760;6.726;2023-04-24T14:01:04;10.60;99.90
59007;DHT22;44792;52.760;6.726;2023-04-24T14:03:30;10.60;99.90
59007;DHT22;44792;52.760;6.726;2023-04-24T14:05:56;10.60;99.90
59007;DHT22;44792;52.760;6.726;2023-04-24T14:08:21;10.60;99.90
59007;DHT22;44792;52.760;6.726;2023-04-24T14:10:47;10.50;99.90
59007;DHT22;44792;52.760;6.726;2023-04-24T14:13:13;10.50;99.90
59007;DHT22;44792;52.760;6.726;2023-04-24T14:15:39;10.50;99.90
59007;DHT22;44792;52.760;6.726;2023-04-24T14:18:05;10.50;99.90
59007;DHT22;44792;52.760;6.726;2023-04-24T14:20:31;10.40;99.90
59007;DHT22;44792;52.760;6.726;2023-04-24T14:22:57;10.40;99.90
59007;DHT22;44792;52.760;6.726;2023-04-24T14:25:26;10.40;99.90
59007;DHT22;44792;52.760;6.726;2023-04-24T14:27:52;10.30;99.90
59007;DHT22;44792;52.760;6.726;2023-04-24T14:30:18;10.30;99.90
59007;DHT22;44792;52.760;6.726;2023-04-24T14:32:44;10.30;99.90
59007;DHT22;44792;52.760;6.726;2023-04-24T14:35:10;10.30;99.90
59007;DHT22;44792;52.760;6.726;2023-04-24T14:37:36;10.20;99.90
59007;DHT22;44792;52.760;6.726;2023-04-24T14:40:03;10.20;99.90
59007;DHT22;44792;52.760;6.726;2023-04-24T14:42:30;10.20;99.90
59007;DHT22;44792;52.760;6.726;2023-04-24T14:44:56;10.20;99.90
59007;DHT22;44792;52.760;6.726;2023-04-24T14:47:22;10.20;99.90
59007;DHT22;44792;52.760;6.726;2023-04-24T14:49:48;10.20;99.90
59007;DHT22;44792;52.760;6.726;2023-04-24T14:52:14;10.20;99.90
59007;DHT22;44792;52.760;6.726;2023-04-24T14:54:39;10.20;99.90
59007;DHT22;44792;52.760;6.726;2023-04-24T14:57:05;10.20;99.90
59007;DHT22;44792;52.760;6.726;2023-04-24T14:59:31;10.20;99.90
59007;DHT22;44792;52.760;6.726;2023-04-24T15:01:57;10.20;99.90
59007;DHT22;44792;52.760;6.726;2023-04-24T15:04:24;10.30;99.90
59007;DHT22;44792;52.760;6.726;2023-04-24T15:06:51;10.30;99.90
59007;DHT22;44792;52.760;6.726;2023-04-24T15:09:19;10.30;99.90
59007;DHT22;44792;52.760;6.726;2023-04-24T15:11:46;10.30;99.90
59007;DHT22;44792;52.760;6.726;2023-04-24T15:14:11;10.30;99.90
59007;DHT22;44792;52.760;6.726;2023-04-24T15:16:37;10.30;99.90
59007;DHT22;44792;52.760;6.726;2023-04-24T15:19:03;10.20;99.90
59007;DHT22;44792;52.760;6.726;2023-04-24T15:21:29;10.30;99.90
59007;DHT22;44792;52.760;6.726;2023-04-24T15:23:54;10.30;99.90
59007;DHT22;44792;52.760;6.726;2023-04-24T15:26:22;10.30;99.90
59007;DHT22;44792;52.760;6.726;2023-04-24T15:28:48;10.30;99.90
59007;DHT22;44792;52.760;6.726;2023-04-24T15:31:14;10.30;99.90
59007;DHT22;44792;52.760;6.726;2023-04-24T15:33:40;10.30;99.90
59007;DHT22;44792;52.760;6.726;2023-04-24T15:36:06;10.30;99.90
59007;DHT22;44792;52.760;6.726;2023-04-24T15:38:31;10.40;99.90
59007;DHT22;44792;52.760;6.726;2023-04-24T15:40:57;10.40;99.90
59007;DHT22;44792;52.760;6.726;2023-04-24T15:43:23;10.40;99.90
59007;DHT22;44792;52.760;6.726;2023-04-24T15:45:51;10.40;99.90
59007;DHT22;44792;52.760;6.726;2023-04-24T15:48:18;10.50;99.90
59007;DHT22;44792;52.760;6.726;2023-04-24T15:50:44;10.40;99.90